createdAt,value
2023-06-07T00:02:02.139Z,19.50
2023-06-07T00:04:31.376Z,19.60
2023-06-07T00:07:02.450Z,19.60
2023-06-07T00:09:31.217Z,19.60
2023-06-07T00:11:58.795Z,19.80
2023-06-07T00:14:26.230Z,19.60
2023-06-07T00:16:54.498Z,19.60
2023-06-07T00:19:26.260Z,19.60
2023-06-07T00:21:53.818Z,19.60
2023-06-07T00:24:21.662Z,19.50
2023-06-07T00:26:48.965Z,19.30
2023-06-07T00:29:16.614Z,19.60
2023-06-07T00:31:44.983Z,19.60
2023-06-07T00:34:12.078Z,19.60
2023-06-07T00:36:39.214Z,19.60
2023-06-07T00:39:06.349Z,19.60
2023-06-07T00:41:33.561Z,19.50
2023-06-07T00:44:03.173Z,19.60
2023-06-07T00:46:31.690Z,19.60
2023-06-07T00:48:59.760Z,19.60
2023-06-07T00:51:31.205Z,19.70
2023-06-07T00:54:01.611Z,19.90
2023-06-07T00:56:29.080Z,19.80
2023-06-07T00:58:56.805Z,19.80
2023-06-07T01:01:24.221Z,19.80
2023-06-07T01:03:51.915Z,20.20
2023-06-07T01:06:19.109Z,19.70
2023-06-07T01:08:46.290Z,19.70
2023-06-07T01:11:14.390Z,19.60
2023-06-07T01:13:42.783Z,19.60
2023-06-07T01:16:10.774Z,19.60
2023-06-07T01:18:38.741Z,19.60
2023-06-07T01:21:07.536Z,20.00
2023-06-07T01:23:36.078Z,19.60
2023-06-07T01:26:03.698Z,19.60
2023-06-07T01:28:34.800Z,19.60
2023-06-07T01:31:03.421Z,19.50
2023-06-07T01:33:33.291Z,19.60
2023-06-07T01:36:01.482Z,19.60
2023-06-07T01:38:29.560Z,19.60
2023-06-07T01:40:58.237Z,19.70
2023-06-07T01:43:26.312Z,19.70
2023-06-07T01:45:54.272Z,19.70
2023-06-07T01:48:21.605Z,19.80
2023-06-07T01:50:48.868Z,19.70
2023-06-07T01:53:16.184Z,19.70
2023-06-07T01:55:43.576Z,19.80
2023-06-07T01:58:24.551Z,19.70
2023-06-07T02:01:02.248Z,19.70
2023-06-07T02:03:53.133Z,19.70
2023-06-07T02:06:30.542Z,19.70
2023-06-07T02:09:01.925Z,19.60
2023-06-07T02:11:30.948Z,19.60
2023-06-07T02:13:59.677Z,19.60
2023-06-07T02:16:36.383Z,19.60
2023-06-07T02:19:07.815Z,19.50
2023-06-07T02:21:39.257Z,19.60
2023-06-07T02:24:07.346Z,19.60
2023-06-07T02:26:34.749Z,19.60
2023-06-07T02:29:03.649Z,19.60
2023-06-07T02:31:30.998Z,19.70
2023-06-07T02:33:58.244Z,19.60
2023-06-07T02:36:26.372Z,19.40
2023-06-07T02:38:53.546Z,19.60
2023-06-07T02:41:22.235Z,19.60
2023-06-07T02:43:49.401Z,19.40
2023-06-07T02:46:16.623Z,19.70
2023-06-07T02:48:43.751Z,19.70
2023-06-07T02:51:10.825Z,19.70
2023-06-07T02:53:38.177Z,19.70
2023-06-07T02:56:05.701Z,19.70
2023-06-07T02:58:32.835Z,19.80
2023-06-07T03:01:01.465Z,19.70
2023-06-07T03:03:28.803Z,19.70
2023-06-07T03:06:00.706Z,19.80
2023-06-07T03:08:27.885Z,19.70
2023-06-07T03:10:54.983Z,19.80
2023-06-07T03:13:22.128Z,19.70
2023-06-07T03:15:49.452Z,19.60
2023-06-07T03:18:16.831Z,19.60
2023-06-07T03:20:44.568Z,19.50
2023-06-07T03:23:11.961Z,19.40
2023-06-07T03:25:39.469Z,19.80
2023-06-07T03:28:06.612Z,19.50
2023-06-07T03:30:33.767Z,19.50
2023-06-07T03:33:00.969Z,19.50
2023-06-07T03:35:28.131Z,19.50
2023-06-07T03:37:55.227Z,19.90
2023-06-07T03:40:22.386Z,19.40
2023-06-07T03:42:49.492Z,19.50
2023-06-07T03:45:16.857Z,20.10
2023-06-07T03:47:44.070Z,19.50
2023-06-07T03:50:11.238Z,19.60
2023-06-07T03:52:38.507Z,19.60
2023-06-07T03:55:06.072Z,19.60
2023-06-07T03:57:33.185Z,19.70
2023-06-07T04:00:02.106Z,19.70
2023-06-07T04:02:29.554Z,19.50
2023-06-07T04:04:56.941Z,19.60
2023-06-07T04:07:24.264Z,19.60
2023-06-07T04:09:51.585Z,19.60
2023-06-07T04:12:18.725Z,19.70
2023-06-07T04:14:45.829Z,19.60
2023-06-07T04:17:12.937Z,19.60
2023-06-07T04:19:48.166Z,19.60
2023-06-07T04:22:19.405Z,19.60
2023-06-07T04:24:47.352Z,19.60
2023-06-07T04:27:14.654Z,19.60
2023-06-07T04:29:41.935Z,19.60
2023-06-07T04:32:11.100Z,19.60
2023-06-07T04:34:42.878Z,19.60
2023-06-07T04:37:10.150Z,19.60
2023-06-07T04:39:37.545Z,19.60
2023-06-07T04:42:06.745Z,19.60
2023-06-07T04:44:34.235Z,19.60
2023-06-07T04:47:08.112Z,19.60
2023-06-07T04:49:39.524Z,19.60
2023-06-07T04:52:07.063Z,19.60
2023-06-07T04:54:37.527Z,19.60
2023-06-07T04:57:05.838Z,19.60
2023-06-07T04:59:35.814Z,19.60
2023-06-07T05:02:03.535Z,19.60
2023-06-07T05:04:31.966Z,19.60
2023-06-07T05:06:59.220Z,19.60
2023-06-07T05:09:29.411Z,19.60
2023-06-07T05:11:57.883Z,19.60
2023-06-07T05:14:25.012Z,19.70
2023-06-07T05:16:52.269Z,19.70
2023-06-07T05:19:19.686Z,19.70
2023-06-07T05:21:46.789Z,19.70
2023-06-07T05:24:16.619Z,19.60
2023-06-07T05:26:44.821Z,19.60
2023-06-07T05:29:12.183Z,18.80
2023-06-07T05:31:39.391Z,19.60
2023-06-07T05:34:06.564Z,19.60
2023-06-07T05:36:36.044Z,19.60
2023-06-07T05:39:04.083Z,19.60
2023-06-07T05:41:31.246Z,19.60
2023-06-07T05:43:58.414Z,19.60
2023-06-07T05:46:25.570Z,19.60
2023-06-07T05:48:52.754Z,19.60
2023-06-07T05:51:20.050Z,19.60
2023-06-07T05:53:47.925Z,19.70
2023-06-07T05:56:17.905Z,19.70
2023-06-07T05:58:45.784Z,19.70
2023-06-07T06:01:14.253Z,19.70
2023-06-07T06:03:41.395Z,19.90
2023-06-07T06:06:16.336Z,19.70
2023-06-07T06:08:45.288Z,19.70
2023-06-07T06:11:13.928Z,19.70
2023-06-07T06:13:41.640Z,19.70
2023-06-07T06:16:12.030Z,19.70
2023-06-07T06:18:41.582Z,19.70
2023-06-07T06:21:09.486Z,19.70
2023-06-07T06:23:37.296Z,19.70
2023-06-07T06:26:05.183Z,19.70
2023-06-07T06:28:32.339Z,19.70
2023-06-07T06:31:01.181Z,19.70
2023-06-07T06:33:28.482Z,19.50
2023-06-07T06:35:55.649Z,19.70
2023-06-07T06:38:22.797Z,19.90
2023-06-07T06:40:50.059Z,19.70
2023-06-07T06:43:17.309Z,19.70
2023-06-07T06:45:45.387Z,19.70
2023-06-07T06:48:13.668Z,19.70
2023-06-07T06:50:40.842Z,19.70
2023-06-07T06:53:08.125Z,19.70
2023-06-07T06:55:35.693Z,19.70
2023-06-07T06:58:04.316Z,19.60
2023-06-07T07:00:32.883Z,19.50
2023-06-07T07:03:00.277Z,19.70
2023-06-07T07:05:30.266Z,19.70
2023-06-07T07:07:58.242Z,19.80
2023-06-07T07:10:25.592Z,19.80
2023-06-07T07:12:52.745Z,19.80
2023-06-07T07:15:19.992Z,19.90
2023-06-07T07:17:49.395Z,19.90
2023-06-07T07:20:18.568Z,19.90
2023-06-07T07:22:47.545Z,19.90
2023-06-07T07:25:16.282Z,19.80
2023-06-07T07:27:43.760Z,19.80
2023-06-07T07:30:11.515Z,19.90
2023-06-07T07:32:39.219Z,19.90
2023-06-07T07:35:06.556Z,19.90
2023-06-07T07:37:33.869Z,19.90
2023-06-07T07:40:01.140Z,19.90
2023-06-07T07:42:28.448Z,19.90
2023-06-07T07:44:55.846Z,19.90
2023-06-07T07:47:23.221Z,19.80
2023-06-07T07:49:50.467Z,19.80
2023-06-07T07:52:18.827Z,19.70
2023-06-07T07:54:46.950Z,19.60
2023-06-07T07:57:14.127Z,19.60
2023-06-07T07:59:41.269Z,19.60
2023-06-07T08:02:08.457Z,19.60
2023-06-07T08:04:35.668Z,19.60
2023-06-07T08:07:02.934Z,19.60
2023-06-07T08:09:30.045Z,19.60
2023-06-07T08:11:57.267Z,19.60
2023-06-07T08:14:24.404Z,19.60
2023-06-07T08:16:51.631Z,19.60
2023-06-07T08:19:18.875Z,19.60
2023-06-07T08:21:48.489Z,19.60
2023-06-07T08:24:15.699Z,20.20
2023-06-07T08:26:45.969Z,19.60
2023-06-07T08:29:13.136Z,19.60
2023-06-07T08:31:44.542Z,19.60
2023-06-07T08:34:12.038Z,19.60
2023-06-07T08:36:43.001Z,19.60
2023-06-07T08:39:10.159Z,19.60
2023-06-07T08:41:37.589Z,19.60
2023-06-07T08:44:04.908Z,19.60
2023-06-07T08:46:33.189Z,19.60
2023-06-07T08:49:03.543Z,19.60
2023-06-07T08:51:37.189Z,19.60
2023-06-07T08:54:05.588Z,19.60
2023-06-07T08:56:33.476Z,19.60
2023-06-07T08:59:03.165Z,20.00
2023-06-07T09:01:32.337Z,19.60
2023-06-07T09:03:59.986Z,19.60
2023-06-07T09:06:27.824Z,19.50
2023-06-07T09:08:55.368Z,19.60
2023-06-07T09:11:22.504Z,19.60
2023-06-07T09:13:50.458Z,19.50
2023-06-07T09:16:18.883Z,19.50
2023-06-07T09:18:48.570Z,19.50
2023-06-07T09:21:29.670Z,19.50
2023-06-07T09:23:59.803Z,19.50
2023-06-07T09:26:38.238Z,19.60
2023-06-07T09:29:09.882Z,19.70
2023-06-07T09:31:38.294Z,19.70
2023-06-07T09:34:27.272Z,19.80
2023-06-07T09:36:59.058Z,20.40
2023-06-07T09:39:28.545Z,19.60
2023-06-07T09:41:57.238Z,19.80
2023-06-07T09:44:31.279Z,19.70
2023-06-07T09:47:02.277Z,19.60
2023-06-07T09:49:35.848Z,19.60
2023-06-07T09:52:04.688Z,19.60
2023-06-07T09:54:42.421Z,19.70
2023-06-07T09:57:33.376Z,19.80
2023-06-07T10:00:15.821Z,19.90
2023-06-07T10:02:44.401Z,19.90
2023-06-07T10:05:16.814Z,20.00
2023-06-07T10:07:49.379Z,20.00
2023-06-07T10:10:19.589Z,20.20
2023-06-07T10:12:49.492Z,20.20
2023-06-07T10:15:25.284Z,20.20
2023-06-07T10:17:58.881Z,20.30
2023-06-07T10:20:30.609Z,20.30
2023-06-07T10:23:09.425Z,20.30
2023-06-07T10:25:45.082Z,20.30
2023-06-07T10:28:17.489Z,20.30
2023-06-07T10:30:58.597Z,20.30
2023-06-07T10:33:26.462Z,20.30
2023-06-07T10:35:54.862Z,20.30
2023-06-07T10:38:22.040Z,20.20
2023-06-07T10:40:49.136Z,20.30
2023-06-07T10:43:16.517Z,20.30
2023-06-07T10:45:43.824Z,20.30
2023-06-07T10:48:34.723Z,20.30
2023-06-07T10:51:02.210Z,20.30
2023-06-07T10:53:53.075Z,20.30
2023-06-07T10:56:30.279Z,20.20
2023-06-07T10:59:00.033Z,20.20
2023-06-07T11:01:27.326Z,20.20
2023-06-07T11:03:55.131Z,20.20
2023-06-07T11:06:22.517Z,20.20
2023-06-07T11:08:51.114Z,20.20
2023-06-07T11:11:41.181Z,20.20
2023-06-07T11:14:08.392Z,20.20
2023-06-07T11:16:36.388Z,20.20
2023-06-07T11:19:15.677Z,20.20
2023-06-07T11:21:54.875Z,20.20
2023-06-07T11:24:23.330Z,20.10
2023-06-07T11:26:51.666Z,20.20
2023-06-07T11:29:19.299Z,20.20
2023-06-07T11:31:57.920Z,20.20
2023-06-07T11:34:27.881Z,20.10
2023-06-07T11:37:18.020Z,20.20
2023-06-07T11:39:45.593Z,20.20
2023-06-07T11:42:13.028Z,20.20
2023-06-07T11:44:40.438Z,20.20
2023-06-07T11:47:08.548Z,20.30
2023-06-07T11:49:38.899Z,20.30
2023-06-07T11:52:06.728Z,20.40
2023-06-07T11:54:35.166Z,20.40
2023-06-07T11:57:02.462Z,20.40
2023-06-07T11:59:30.844Z,20.30
2023-06-07T12:01:59.320Z,20.30
2023-06-07T12:04:26.952Z,20.30
2023-06-07T12:06:54.281Z,20.30
2023-06-07T12:09:23.036Z,20.30
2023-06-07T12:11:50.721Z,20.30
2023-06-07T12:14:33.950Z,20.40
2023-06-07T12:17:01.849Z,20.40
2023-06-07T12:19:29.332Z,20.40
2023-06-07T12:22:04.839Z,20.30
2023-06-07T12:24:32.314Z,20.30
2023-06-07T12:27:04.757Z,19.60
2023-06-07T12:29:32.039Z,20.20
2023-06-07T12:32:04.143Z,20.20
2023-06-07T12:34:31.682Z,19.90
2023-06-07T12:36:58.930Z,20.30
2023-06-07T12:39:30.436Z,20.30
2023-06-07T12:41:58.125Z,20.30
2023-06-07T12:44:25.820Z,20.30
2023-06-07T12:46:53.223Z,20.40
2023-06-07T12:49:20.514Z,20.30
2023-06-07T12:51:47.912Z,20.30
2023-06-07T12:54:15.155Z,20.30
2023-06-07T12:56:43.112Z,20.30
2023-06-07T12:59:10.239Z,20.30
2023-06-07T13:01:37.745Z,19.60
2023-06-07T13:04:05.273Z,20.30
2023-06-07T13:06:32.486Z,20.30
2023-06-07T13:09:07.004Z,20.40
2023-06-07T13:11:34.286Z,20.30
2023-06-07T13:14:01.523Z,20.30
2023-06-07T13:16:29.815Z,20.30
2023-06-07T13:18:57.892Z,20.30
2023-06-07T13:21:25.153Z,20.30
2023-06-07T13:23:52.504Z,20.40
2023-06-07T13:26:19.955Z,20.50
2023-06-07T13:28:48.225Z,20.40
2023-06-07T13:31:15.698Z,20.40
2023-06-07T13:33:43.894Z,20.40
2023-06-07T13:36:12.132Z,20.50
2023-06-07T13:38:39.319Z,20.60
2023-06-07T13:41:06.645Z,20.50
2023-06-07T13:43:53.969Z,20.40
2023-06-07T13:46:22.203Z,20.50
2023-06-07T13:48:49.356Z,20.50
2023-06-07T13:51:16.630Z,20.50
2023-06-07T13:53:44.594Z,20.50
2023-06-07T13:56:11.873Z,20.40
2023-06-07T13:58:39.072Z,20.40
2023-06-07T14:01:06.731Z,20.50
2023-06-07T14:03:35.630Z,20.40
2023-06-07T14:06:03.848Z,20.20
2023-06-07T14:08:31.329Z,21.10
2023-06-07T14:11:01.116Z,20.50
2023-06-07T14:13:28.904Z,20.50
2023-06-07T14:15:56.201Z,20.50
2023-06-07T14:18:23.356Z,20.50
2023-06-07T14:20:50.975Z,20.50
2023-06-07T14:23:18.433Z,20.00
2023-06-07T14:25:45.548Z,20.60
2023-06-07T14:28:12.733Z,20.60
2023-06-07T14:30:40.491Z,20.60
2023-06-07T14:33:07.596Z,20.60
2023-06-07T14:35:34.819Z,20.60
2023-06-07T14:38:01.947Z,20.60
2023-06-07T14:40:29.039Z,20.50
2023-06-07T14:42:56.164Z,20.50
2023-06-07T14:45:25.662Z,20.50
2023-06-07T14:47:53.309Z,20.40
2023-06-07T14:50:20.529Z,20.20
2023-06-07T14:52:47.645Z,20.40
2023-06-07T14:55:14.873Z,20.40
2023-06-07T14:57:42.101Z,20.40
2023-06-07T15:00:10.787Z,20.40
2023-06-07T15:02:38.050Z,20.40
2023-06-07T15:05:06.354Z,20.40
2023-06-07T15:07:33.711Z,20.40
2023-06-07T15:10:00.952Z,20.40
2023-06-07T15:12:28.094Z,20.40
2023-06-07T15:14:55.235Z,20.40
2023-06-07T15:17:22.503Z,20.40
2023-06-07T15:19:49.663Z,20.40
2023-06-07T15:22:16.821Z,20.40
2023-06-07T15:24:44.714Z,20.40
2023-06-07T15:27:12.133Z,20.30
2023-06-07T15:29:39.288Z,20.20
2023-06-07T15:32:06.903Z,20.30
2023-06-07T15:34:34.281Z,20.40
2023-06-07T15:37:01.490Z,20.40
2023-06-07T15:39:28.705Z,20.40
2023-06-07T15:41:55.850Z,20.30
2023-06-07T15:44:23.084Z,20.20
2023-06-07T15:46:50.410Z,20.20
2023-06-07T15:49:19.178Z,20.20
2023-06-07T15:51:46.438Z,20.30
2023-06-07T15:54:13.868Z,20.30
2023-06-07T15:56:43.942Z,20.20
2023-06-07T15:59:11.725Z,20.30
2023-06-07T16:01:39.619Z,20.30
2023-06-07T16:04:07.057Z,20.20
2023-06-07T16:06:36.155Z,20.20
2023-06-07T16:09:08.978Z,20.20
2023-06-07T16:11:39.683Z,20.10
2023-06-07T16:14:08.203Z,20.10
2023-06-07T16:16:35.568Z,20.10
2023-06-07T16:19:03.739Z,20.10
2023-06-07T16:21:31.224Z,20.10
2023-06-07T16:23:58.564Z,20.10
2023-06-07T16:26:25.705Z,20.10
2023-06-07T16:28:52.818Z,20.30
2023-06-07T16:31:20.059Z,20.10
2023-06-07T16:33:47.199Z,20.10
2023-06-07T16:36:14.389Z,20.10
2023-06-07T16:38:41.489Z,20.10
2023-06-07T16:41:08.608Z,20.00
2023-06-07T16:43:35.771Z,20.10
2023-06-07T16:46:02.932Z,20.00
2023-06-07T16:48:30.151Z,19.60
2023-06-07T16:50:57.309Z,19.90
2023-06-07T16:53:24.608Z,20.10
2023-06-07T16:55:51.884Z,20.10
2023-06-07T16:58:18.997Z,20.10
2023-06-07T17:00:46.208Z,20.10
2023-06-07T17:03:13.715Z,20.10
2023-06-07T17:05:40.902Z,20.00
2023-06-07T17:08:08.051Z,20.10
2023-06-07T17:10:36.579Z,20.00
2023-06-07T17:13:03.928Z,20.10
2023-06-07T17:15:31.061Z,20.10
2023-06-07T17:18:01.774Z,20.00
2023-06-07T17:20:29.066Z,20.00
2023-06-07T17:22:57.875Z,20.10
2023-06-07T17:25:25.327Z,20.00
2023-06-07T17:27:52.440Z,20.00
2023-06-07T17:30:19.598Z,20.00
2023-06-07T17:32:46.730Z,20.00
2023-06-07T17:35:15.610Z,20.00
2023-06-07T17:37:42.719Z,20.10
2023-06-07T17:40:10.643Z,20.00
2023-06-07T17:42:37.799Z,20.00
2023-06-07T17:45:05.494Z,20.00
2023-06-07T17:47:48.763Z,20.00
2023-06-07T17:50:16.015Z,20.00
2023-06-07T17:52:44.202Z,20.00
2023-06-07T17:55:11.894Z,20.00
2023-06-07T17:57:39.660Z,20.00
2023-06-07T18:00:08.454Z,20.00
2023-06-07T18:02:36.210Z,20.00
2023-06-07T18:05:03.983Z,20.00
2023-06-07T18:07:31.584Z,20.00
2023-06-07T18:09:59.052Z,20.00
2023-06-07T18:12:26.202Z,19.90
2023-06-07T18:14:53.315Z,19.90
2023-06-07T18:17:20.739Z,19.90
2023-06-07T18:19:47.951Z,20.00
2023-06-07T18:22:15.082Z,20.00
2023-06-07T18:24:42.239Z,20.00
2023-06-07T18:27:09.366Z,19.90
2023-06-07T18:29:36.598Z,19.90
2023-06-07T18:32:04.906Z,19.90
2023-06-07T18:34:34.351Z,19.90
2023-06-07T18:37:03.152Z,20.00
2023-06-07T18:39:30.288Z,19.90
2023-06-07T18:41:57.748Z,19.90
2023-06-07T18:44:24.843Z,20.00
2023-06-07T18:46:52.123Z,19.90
2023-06-07T18:49:19.405Z,19.90
2023-06-07T18:51:46.518Z,19.90
2023-06-07T18:54:13.648Z,19.80
2023-06-07T18:56:41.380Z,19.80
2023-06-07T18:59:08.813Z,19.30
2023-06-07T19:01:50.836Z,19.50
2023-06-07T19:04:19.644Z,19.80
2023-06-07T19:06:50.374Z,19.50
2023-06-07T19:09:18.997Z,19.40
2023-06-07T19:11:46.319Z,19.40
2023-06-07T19:14:13.544Z,19.40
2023-06-07T19:16:40.663Z,19.40
2023-06-07T19:19:07.806Z,19.30
2023-06-07T19:21:34.913Z,19.30
2023-06-07T19:24:04.211Z,19.30
2023-06-07T19:26:32.055Z,19.20
2023-06-07T19:28:59.290Z,19.30
2023-06-07T19:31:26.928Z,19.30
2023-06-07T19:33:54.980Z,19.30
2023-06-07T19:36:22.104Z,19.20
2023-06-07T19:38:49.211Z,19.20
2023-06-07T19:41:16.368Z,19.30
2023-06-07T19:43:43.559Z,19.20
2023-06-07T19:46:11.521Z,19.20
2023-06-07T19:48:40.594Z,19.20
2023-06-07T19:51:08.424Z,19.20
2023-06-07T19:53:35.919Z,19.10
2023-06-07T19:56:03.580Z,19.10
2023-06-07T19:58:31.467Z,19.20
2023-06-07T20:00:58.818Z,18.80
2023-06-07T20:03:25.939Z,19.10
2023-06-07T20:05:53.057Z,19.20
2023-06-07T20:08:20.300Z,19.10
2023-06-07T20:10:47.443Z,19.10
2023-06-07T20:13:17.849Z,19.00
2023-06-07T20:15:45.559Z,19.00
2023-06-07T20:18:12.696Z,19.10
2023-06-07T20:20:39.845Z,19.10
2023-06-07T20:23:06.995Z,19.10
2023-06-07T20:25:34.198Z,19.10
2023-06-07T20:28:01.525Z,19.20
2023-06-07T20:30:28.671Z,19.10
2023-06-07T20:32:55.816Z,19.10
2023-06-07T20:35:23.020Z,19.10
2023-06-07T20:37:50.410Z,19.10
2023-06-07T20:40:17.547Z,19.10
2023-06-07T20:42:44.649Z,19.10
2023-06-07T20:45:13.427Z,19.30
2023-06-07T20:47:41.176Z,19.10
2023-06-07T20:50:09.510Z,19.10
2023-06-07T20:52:36.713Z,19.00
2023-06-07T20:55:04.864Z,19.00
2023-06-07T20:57:32.061Z,18.90
2023-06-07T21:00:02.895Z,18.90
2023-06-07T21:02:30.530Z,18.90
2023-06-07T21:04:57.729Z,18.90
2023-06-07T21:07:24.923Z,18.90
2023-06-07T21:09:52.183Z,18.90
2023-06-07T21:12:19.265Z,18.90
2023-06-07T21:14:46.389Z,18.70
2023-06-07T21:17:13.484Z,18.90
2023-06-07T21:19:40.612Z,18.80
2023-06-07T21:22:07.754Z,18.80
2023-06-07T21:24:34.933Z,18.80
2023-06-07T21:27:02.102Z,18.80
2023-06-07T21:29:29.262Z,18.70
2023-06-07T21:31:56.425Z,18.80
2023-06-07T21:34:23.602Z,18.80
2023-06-07T21:36:50.695Z,18.80
2023-06-07T21:39:17.778Z,18.80
2023-06-07T21:41:44.971Z,18.70
2023-06-07T21:44:12.119Z,18.80
2023-06-07T21:46:39.249Z,18.90
2023-06-07T21:49:06.420Z,18.80
2023-06-07T21:51:37.610Z,18.90
2023-06-07T21:54:04.861Z,18.40
2023-06-07T21:56:32.045Z,18.90
2023-06-07T21:58:59.162Z,19.00
2023-06-07T22:01:26.326Z,18.80
2023-06-07T22:03:53.570Z,19.00
2023-06-07T22:06:20.730Z,18.90
2023-06-07T22:08:47.830Z,19.00
2023-06-07T22:11:14.992Z,19.00
2023-06-07T22:13:45.542Z,19.00
2023-06-07T22:16:15.647Z,19.40
2023-06-07T22:18:45.572Z,19.30
2023-06-07T22:21:13.932Z,19.40
2023-06-07T22:23:41.819Z,19.50
2023-06-07T22:26:09.121Z,19.90
2023-06-07T22:28:36.680Z,19.50
2023-06-07T22:31:03.914Z,19.60
2023-06-07T22:33:33.186Z,19.70
2023-06-07T22:36:00.614Z,19.40
2023-06-07T22:38:27.730Z,19.80
2023-06-07T22:40:55.468Z,19.90
2023-06-07T22:43:22.732Z,19.70
2023-06-07T22:45:49.894Z,20.40
2023-06-07T22:48:17.125Z,19.80
2023-06-07T22:50:44.362Z,19.90
2023-06-07T22:53:13.691Z,19.80
2023-06-07T22:55:42.257Z,19.80
2023-06-07T22:58:10.071Z,20.20
2023-06-07T23:00:40.811Z,19.90
2023-06-07T23:03:08.763Z,19.80
2023-06-07T23:05:38.177Z,19.80
2023-06-07T23:08:05.975Z,19.80
2023-06-07T23:10:37.615Z,19.80
2023-06-07T23:13:10.204Z,19.80
2023-06-07T23:15:42.966Z,19.60
2023-06-07T23:18:16.067Z,19.70
2023-06-07T23:20:45.686Z,19.70
2023-06-07T23:23:13.691Z,19.70
2023-06-07T23:25:41.098Z,19.60
2023-06-07T23:28:08.273Z,19.60
2023-06-07T23:30:35.898Z,19.80
2023-06-07T23:33:04.052Z,19.70
2023-06-07T23:35:31.369Z,19.70
2023-06-07T23:37:58.691Z,19.70
2023-06-07T23:40:25.812Z,19.20
2023-06-07T23:42:53.281Z,19.70
2023-06-07T23:45:24.057Z,20.20
2023-06-07T23:47:51.372Z,19.60
2023-06-07T23:50:18.568Z,19.70
2023-06-07T23:52:45.817Z,19.40
2023-06-07T23:55:13.035Z,19.70
2023-06-07T23:57:40.271Z,20.00
